sensor_id;sensor_type;location;lat;lon;timestamp;pressure;altitude;pressure_sealevel;temperature;humidity
63552;BME280;49698;48.072;7.800;2023-02-21T00:02:25;100007.56;;;3.21;83.21
63552;BME280;49698;48.072;7.800;2023-02-21T00:05:10;100015.75;;;3.19;83.23
63552;BME280;49698;48.072;7.800;2023-02-21T00:07:56;100006.19;;;3.18;83.55
63552;BME280;49698;48.072;7.800;2023-02-21T00:10:41;100017.00;;;3.16;83.49
63552;BME280;49698;48.072;7.800;2023-02-21T00:13:27;100007.03;;;3.12;83.49
63552;BME280;49698;48.072;7.800;2023-02-21T00:16:16;99997.88;;;3.08;83.62
63552;BME280;49698;48.072;7.800;2023-02-21T00:19:03;99999.59;;;3.02;83.82
63552;BME280;49698;48.072;7.800;2023-02-21T00:21:48;99994.72;;;2.99;83.57
63552;BME280;49698;48.072;7.800;2023-02-21T00:24:34;99981.84;;;2.96;84.07
63552;BME280;49698;48.072;7.800;2023-02-21T00:27:20;99986.56;;;2.94;84.03
63552;BME280;49698;48.072;7.800;2023-02-21T00:30:06;99984.94;;;2.93;83.67
63552;BME280;49698;48.072;7.800;2023-02-21T00:32:53;99986.22;;;2.90;83.90
63552;BME280;49698;48.072;7.800;2023-02-21T00:35:38;99977.03;;;2.86;83.87
63552;BME280;49698;48.072;7.800;2023-02-21T00:38:24;99975.63;;;2.84;83.65
63552;BME280;49698;48.072;7.800;2023-02-21T00:41:09;99967.88;;;2.82;83.83
63552;BME280;49698;48.072;7.800;2023-02-21T00:43:55;99969.16;;;2.80;83.74
63552;BME280;49698;48.072;7.800;2023-02-21T00:46:40;99968.75;;;2.76;83.82
63552;BME280;49698;48.072;7.800;2023-02-21T00:49:27;99963.88;;;2.73;83.81
63552;BME280;49698;48.072;7.800;2023-02-21T00:52:13;99960.84;;;2.69;84.08
63552;BME280;49698;48.072;7.800;2023-02-21T00:54:58;99971.91;;;2.66;84.11
63552;BME280;49698;48.072;7.800;2023-02-21T00:57:44;99963.94;;;2.66;84.23
63552;BME280;49698;48.072;7.800;2023-02-21T01:00:30;99965.56;;;2.67;84.11
63552;BME280;49698;48.072;7.800;2023-02-21T01:03:16;99957.00;;;2.65;84.19
63552;BME280;49698;48.072;7.800;2023-02-21T01:06:07;99960.91;;;2.63;84.37
63552;BME280;49698;48.072;7.800;2023-02-21T01:08:53;99960.31;;;2.61;84.09
63552;BME280;49698;48.072;7.800;2023-02-21T01:11:39;99960.97;;;2.56;84.30
63552;BME280;49698;48.072;7.800;2023-02-21T01:14:25;99963.25;;;2.53;84.49
63552;BME280;49698;48.072;7.800;2023-02-21T01:17:10;99960.22;;;2.49;84.36
63552;BME280;49698;48.072;7.800;2023-02-21T01:19:55;99957.16;;;2.45;84.57
63552;BME280;49698;48.072;7.800;2023-02-21T01:22:42;99950.44;;;2.43;84.42
63552;BME280;49698;48.072;7.800;2023-02-21T01:25:28;99960.47;;;2.41;84.69
63552;BME280;49698;48.072;7.800;2023-02-21T01:28:13;99948.44;;;2.38;84.77
63552;BME280;49698;48.072;7.800;2023-02-21T01:31:02;99952.13;;;2.37;84.57
63552;BME280;49698;48.072;7.800;2023-02-21T01:33:47;99950.50;;;2.36;84.54
63552;BME280;49698;48.072;7.800;2023-02-21T01:36:32;99947.47;;;2.33;84.90
63552;BME280;49698;48.072;7.800;2023-02-21T01:39:21;99946.47;;;2.27;84.99
63552;BME280;49698;48.072;7.800;2023-02-21T01:42:08;99943.44;;;2.24;84.63
63552;BME280;49698;48.072;7.800;2023-02-21T01:45:32;99945.50;;;2.22;85.06
63552;BME280;49698;48.072;7.800;2023-02-21T01:48:23;99937.97;;;2.18;84.80
63552;BME280;49698;48.072;7.800;2023-02-21T01:51:11;99935.75;;;2.15;84.87
63552;BME280;49698;48.072;7.800;2023-02-21T01:53:59;99934.56;;;2.11;85.06
63552;BME280;49698;48.072;7.800;2023-02-21T01:56:46;99935.78;;;2.09;85.30
63552;BME280;49698;48.072;7.800;2023-02-21T01:59:32;99926.44;;;2.06;85.29
63552;BME280;49698;48.072;7.800;2023-02-21T02:02:23;99930.72;;;2.07;85.39
63552;BME280;49698;48.072;7.800;2023-02-21T02:05:12;99928.06;;;2.07;84.96
63552;BME280;49698;48.072;7.800;2023-02-21T02:07:57;99926.44;;;2.06;85.29
63552;BME280;49698;48.072;7.800;2023-02-21T02:10:43;99916.03;;;2.05;85.29
63552;BME280;49698;48.072;7.800;2023-02-21T02:13:56;99914.63;;;2.02;85.29
63552;BME280;49698;48.072;7.800;2023-02-21T02:16:37;99912.19;;;2.01;85.36
63552;BME280;49698;48.072;7.800;2023-02-21T02:22:39;99911.78;;;1.97;85.36
63552;BME280;49698;48.072;7.800;2023-02-21T02:25:20;99905.28;;;1.93;85.53
63552;BME280;49698;48.072;7.800;2023-02-21T02:28:07;99905.75;;;1.90;85.72
63552;BME280;49698;48.072;7.800;2023-02-21T02:34:01;99903.28;;;1.88;85.42
63552;BME280;49698;48.072;7.800;2023-02-21T02:36:37;99905.13;;;1.88;85.43
63552;BME280;49698;48.072;7.800;2023-02-21T02:39:17;99899.84;;;1.88;85.71
63552;BME280;49698;48.072;7.800;2023-02-21T02:41:54;99901.44;;;1.89;85.62
63552;BME280;49698;48.072;7.800;2023-02-21T02:44:31;99900.44;;;1.90;85.37
63552;BME280;49698;48.072;7.800;2023-02-21T02:47:04;99902.06;;;1.91;85.56
63552;BME280;49698;48.072;7.800;2023-02-21T02:49:37;99902.63;;;1.93;85.47
63552;BME280;49698;48.072;7.800;2023-02-21T02:52:09;99897.94;;;1.95;85.28
63552;BME280;49698;48.072;7.800;2023-02-21T02:54:37;99892.84;;;1.93;85.23
63552;BME280;49698;48.072;7.800;2023-02-21T02:57:08;99891.03;;;1.94;85.35
63552;BME280;49698;48.072;7.800;2023-02-21T02:59:41;99893.06;;;1.92;85.35
63552;BME280;49698;48.072;7.800;2023-02-21T03:02:31;99889.84;;;1.90;85.76
63552;BME280;49698;48.072;7.800;2023-02-21T03:05:13;99888.19;;;1.89;85.58
63552;BME280;49698;48.072;7.800;2023-02-21T03:07:56;99881.28;;;1.88;85.49
63552;BME280;49698;48.072;7.800;2023-02-21T03:10:35;99881.28;;;1.88;85.65
63552;BME280;49698;48.072;7.800;2023-02-21T03:13:12;99880.47;;;1.87;85.95
63552;BME280;49698;48.072;7.800;2023-02-21T03:15:46;99888.63;;;1.86;86.10
63552;BME280;49698;48.072;7.800;2023-02-21T03:18:21;99888.03;;;1.84;86.15
63552;BME280;49698;48.072;7.800;2023-02-21T03:20:55;99897.81;;;1.83;86.32
63552;BME280;49698;48.072;7.800;2023-02-21T03:23:27;99892.72;;;1.82;86.28
63552;BME280;49698;48.072;7.800;2023-02-21T03:25:59;99898.47;;;1.79;86.16
63552;BME280;49698;48.072;7.800;2023-02-21T03:28:29;99898.09;;;1.68;86.51
63552;BME280;49698;48.072;7.800;2023-02-21T03:30:59;99892.66;;;1.63;86.67
63552;BME280;49698;48.072;7.800;2023-02-21T03:33:30;99902.22;;;1.58;86.67
63552;BME280;49698;48.072;7.800;2023-02-21T03:35:59;99901.84;;;1.54;86.88
63552;BME280;49698;48.072;7.800;2023-02-21T03:38:29;99907.59;;;1.51;86.70
63552;BME280;49698;48.072;7.800;2023-02-21T03:40:58;99902.28;;;1.51;86.96
63552;BME280;49698;48.072;7.800;2023-02-21T03:43:25;99899.63;;;1.51;87.00
63552;BME280;49698;48.072;7.800;2023-02-21T03:45:58;99903.28;;;1.50;87.07
63552;BME280;49698;48.072;7.800;2023-02-21T03:48:27;99906.97;;;1.49;87.17
63552;BME280;49698;48.072;7.800;2023-02-21T03:51:10;99897.41;;;1.48;86.60
63552;BME280;49698;48.072;7.800;2023-02-21T03:53:40;99895.75;;;1.47;86.91
63552;BME280;49698;48.072;7.800;2023-02-21T03:56:10;99895.97;;;1.45;87.03
63552;BME280;49698;48.072;7.800;2023-02-21T03:59:13;99903.94;;;1.45;86.93
63552;BME280;49698;48.072;7.800;2023-02-21T04:01:41;99898.63;;;1.45;86.90
63552;BME280;49698;48.072;7.800;2023-02-21T04:04:09;99903.13;;;1.45;86.98
63552;BME280;49698;48.072;7.800;2023-02-21T04:06:37;99903.13;;;1.45;86.74
63552;BME280;49698;48.072;7.800;2023-02-21T04:09:07;99904.72;;;1.46;87.00
63552;BME280;49698;48.072;7.800;2023-02-21T04:11:35;99905.53;;;1.46;87.08
63552;BME280;49698;48.072;7.800;2023-02-21T04:14:03;99907.38;;;1.46;86.87
63552;BME280;49698;48.072;7.800;2023-02-21T04:16:31;99902.09;;;1.46;86.84
63552;BME280;49698;48.072;7.800;2023-02-21T04:18:59;99909.44;;;1.44;87.31
63552;BME280;49698;48.072;7.800;2023-02-21T04:21:27;99912.09;;;1.44;87.18
63552;BME280;49698;48.072;7.800;2023-02-21T04:23:58;99910.44;;;1.43;86.89
63552;BME280;49698;48.072;7.800;2023-02-21T04:26:31;99908.03;;;1.41;87.08
63552;BME280;49698;48.072;7.800;2023-02-21T04:29:01;99909.88;;;1.41;87.35
63552;BME280;49698;48.072;7.800;2023-02-21T04:31:29;99906.59;;;1.39;87.02
63552;BME280;49698;48.072;7.800;2023-02-21T04:34:01;99899.69;;;1.38;87.09
63552;BME280;49698;48.072;7.800;2023-02-21T04:36:38;99908.84;;;1.35;87.19
63552;BME280;49698;48.072;7.800;2023-02-21T04:39:06;99906.19;;;1.35;87.25
63552;BME280;49698;48.072;7.800;2023-02-21T04:41:38;99917.00;;;1.34;87.45
63552;BME280;49698;48.072;7.800;2023-02-21T04:44:07;99910.91;;;1.33;87.16
63552;BME280;49698;48.072;7.800;2023-02-21T04:46:35;99918.03;;;1.33;87.16
63552;BME280;49698;48.072;7.800;2023-02-21T04:49:03;99907.25;;;1.28;87.52
63552;BME280;49698;48.072;7.800;2023-02-21T04:51:31;99904.59;;;1.28;87.31
63552;BME280;49698;48.072;7.800;2023-02-21T04:53:59;99904.81;;;1.26;87.33
63552;BME280;49698;48.072;7.800;2023-02-21T04:56:27;99904.22;;;1.24;87.33
63552;BME280;49698;48.072;7.800;2023-02-21T04:58:57;99907.06;;;1.22;87.35
63552;BME280;49698;48.072;7.800;2023-02-21T05:01:26;99905.44;;;1.21;87.43
63552;BME280;49698;48.072;7.800;2023-02-21T05:03:54;99905.44;;;1.21;87.43
63552;BME280;49698;48.072;7.800;2023-02-21T05:06:24;99905.44;;;1.21;87.78
63552;BME280;49698;48.072;7.800;2023-02-21T05:08:52;99902.00;;;1.21;87.65
63552;BME280;49698;48.072;7.800;2023-02-21T05:11:21;99900.34;;;1.20;87.55
63552;BME280;49698;48.072;7.800;2023-02-21T05:13:50;99898.72;;;1.19;87.79
63552;BME280;49698;48.072;7.800;2023-02-21T05:16:19;99902.63;;;1.16;87.89
63552;BME280;49698;48.072;7.800;2023-02-21T05:18:48;99901.19;;;1.14;88.07
63552;BME280;49698;48.072;7.800;2023-02-21T05:21:17;99892.63;;;1.12;88.22
63552;BME280;49698;48.072;7.800;2023-02-21T05:23:46;99897.53;;;1.08;88.20
63552;BME280;49698;48.072;7.800;2023-02-21T05:26:23;99899.59;;;1.06;88.53
63552;BME280;49698;48.072;7.800;2023-02-21T05:28:52;99898.38;;;1.02;88.67
63552;BME280;49698;48.072;7.800;2023-02-21T05:31:21;99898.78;;;0.99;88.89
63552;BME280;49698;48.072;7.800;2023-02-21T05:33:50;99898.78;;;0.99;88.83
63552;BME280;49698;48.072;7.800;2023-02-21T05:36:17;99900.00;;;0.96;88.75
63552;BME280;49698;48.072;7.800;2023-02-21T05:38:47;99900.84;;;0.97;88.88
63552;BME280;49698;48.072;7.800;2023-02-21T05:41:20;99913.47;;;0.95;88.80
63552;BME280;49698;48.072;7.800;2023-02-21T05:44:16;99905.75;;;0.93;88.66
63552;BME280;49698;48.072;7.800;2023-02-21T05:46:45;99904.31;;;0.91;88.75
63552;BME280;49698;48.072;7.800;2023-02-21T05:49:14;99902.06;;;0.88;88.80
63552;BME280;49698;48.072;7.800;2023-02-21T05:51:42;99892.53;;;0.87;88.83
63552;BME280;49698;48.072;7.800;2023-02-21T05:54:14;99893.56;;;0.86;88.75
63552;BME280;49698;48.072;7.800;2023-02-21T05:56:45;99894.75;;;0.83;88.74
63552;BME280;49698;48.072;7.800;2023-02-21T05:59:14;99898.63;;;0.81;89.10
63552;BME280;49698;48.072;7.800;2023-02-21T06:01:42;99900.06;;;0.77;89.23
63552;BME280;49698;48.072;7.800;2023-02-21T06:04:12;99904.53;;;0.76;89.46
63552;BME280;49698;48.072;7.800;2023-02-21T06:06:40;99895.00;;;0.75;89.63
63552;BME280;49698;48.072;7.800;2023-02-21T06:09:08;99897.81;;;0.73;89.53
63552;BME280;49698;48.072;7.800;2023-02-21T06:11:38;99895.41;;;0.72;89.53
63552;BME280;49698;48.072;7.800;2023-02-21T06:14:07;99883.38;;;0.69;89.32
63552;BME280;49698;48.072;7.800;2023-02-21T06:16:39;99891.53;;;0.68;89.30
63552;BME280;49698;48.072;7.800;2023-02-21T06:19:10;99896.81;;;0.68;89.32
63552;BME280;49698;48.072;7.800;2023-02-21T06:21:41;99889.91;;;0.67;89.49
63552;BME280;49698;48.072;7.800;2023-02-21T06:24:10;99902.13;;;0.68;89.33
63552;BME280;49698;48.072;7.800;2023-02-21T06:26:38;99888.28;;;0.66;89.41
63552;BME280;49698;48.072;7.800;2023-02-21T06:29:09;99890.94;;;0.66;89.56
63552;BME280;49698;48.072;7.800;2023-02-21T06:31:37;99891.13;;;0.64;89.33
63552;BME280;49698;48.072;7.800;2023-02-21T06:34:05;99889.28;;;0.65;89.17
63552;BME280;49698;48.072;7.800;2023-02-21T06:36:33;99894.81;;;0.63;89.04
63552;BME280;49698;48.072;7.800;2023-02-21T06:39:03;99888.50;;;0.64;89.43
63552;BME280;49698;48.072;7.800;2023-02-21T06:41:33;99898.03;;;0.65;89.22
63552;BME280;49698;48.072;7.800;2023-02-21T06:44:01;99894.41;;;0.66;89.29
63552;BME280;49698;48.072;7.800;2023-02-21T06:46:29;99900.69;;;0.65;89.20
63552;BME280;49698;48.072;7.800;2023-02-21T06:48:57;99897.22;;;0.65;89.17
63552;BME280;49698;48.072;7.800;2023-02-21T06:51:25;99905.97;;;0.65;88.96
63552;BME280;49698;48.072;7.800;2023-02-21T06:53:56;99911.88;;;0.67;88.93
63552;BME280;49698;48.072;7.800;2023-02-21T06:56:26;99911.88;;;0.67;88.95
63552;BME280;49698;48.072;7.800;2023-02-21T06:58:54;99915.97;;;0.70;89.22
63552;BME280;49698;48.072;7.800;2023-02-21T07:01:23;99908.84;;;0.70;89.13
63552;BME280;49698;48.072;7.800;2023-02-21T07:03:52;99913.69;;;0.73;89.03
63552;BME280;49698;48.072;7.800;2023-02-21T07:06:21;99909.84;;;0.76;88.99
63552;BME280;49698;48.072;7.800;2023-02-21T07:08:49;99902.09;;;0.81;88.67
63552;BME280;49698;48.072;7.800;2023-02-21T07:11:17;99909.44;;;0.86;88.68
63552;BME280;49698;48.072;7.800;2023-02-21T07:13:48;99905.34;;;0.90;88.24
63552;BME280;49698;48.072;7.800;2023-02-21T07:16:16;99908.97;;;0.95;88.18
63552;BME280;49698;48.072;7.800;2023-02-21T07:18:45;99909.16;;;1.01;87.82
63552;BME280;49698;48.072;7.800;2023-02-21T07:21:14;99905.69;;;1.07;87.65
63552;BME280;49698;48.072;7.800;2023-02-21T07:23:42;99910.38;;;1.11;87.45
63552;BME280;49698;48.072;7.800;2023-02-21T07:26:10;99913.22;;;1.16;87.44
63552;BME280;49698;48.072;7.800;2023-02-21T07:28:39;99918.69;;;1.21;87.19
63552;BME280;49698;48.072;7.800;2023-02-21T07:31:08;99912.53;;;1.28;87.29
63552;BME280;49698;48.072;7.800;2023-02-21T07:33:37;99920.06;;;1.37;86.98
63552;BME280;49698;48.072;7.800;2023-02-21T07:36:06;99922.69;;;1.44;86.79
63552;BME280;49698;48.072;7.800;2023-02-21T07:38:34;99927.53;;;1.54;86.79
63552;BME280;49698;48.072;7.800;2023-02-21T07:41:02;99929.13;;;1.61;86.36
63552;BME280;49698;48.072;7.800;2023-02-21T07:43:31;99920.94;;;1.69;86.34
63552;BME280;49698;48.072;7.800;2023-02-21T07:45:59;99930.28;;;1.79;86.27
63552;BME280;49698;48.072;7.800;2023-02-21T07:48:28;99927.97;;;1.89;85.83
63552;BME280;49698;48.072;7.800;2023-02-21T07:50:56;99929.34;;;1.98;85.73
63552;BME280;49698;48.072;7.800;2023-02-21T07:53:24;99922.75;;;2.07;85.66
63552;BME280;49698;48.072;7.800;2023-02-21T07:55:52;99929.22;;;2.18;85.19
63552;BME280;49698;48.072;7.800;2023-02-21T07:58:20;99927.25;;;2.32;85.07
63552;BME280;49698;48.072;7.800;2023-02-21T08:00:48;99923.47;;;2.46;84.95
63552;BME280;49698;48.072;7.800;2023-02-21T08:03:16;99923.75;;;2.63;84.52
63552;BME280;49698;48.072;7.800;2023-02-21T08:05:45;99922.97;;;2.81;84.01
63552;BME280;49698;48.072;7.800;2023-02-21T08:08:14;99925.22;;;3.02;83.21
63552;BME280;49698;48.072;7.800;2023-02-21T08:10:42;99921.31;;;3.23;83.19
63552;BME280;49698;48.072;7.800;2023-02-21T08:13:10;99916.56;;;3.43;82.34
63552;BME280;49698;48.072;7.800;2023-02-21T08:15:38;99923.84;;;3.66;81.82
63552;BME280;49698;48.072;7.800;2023-02-21T08:18:06;99909.03;;;3.89;81.51
63552;BME280;49698;48.072;7.800;2023-02-21T08:20:34;99910.50;;;4.15;80.99
63552;BME280;49698;48.072;7.800;2023-02-21T08:23:03;99912.75;;;4.41;80.67
63552;BME280;49698;48.072;7.800;2023-02-21T08:25:31;99915.78;;;4.69;80.18
63552;BME280;49698;48.072;7.800;2023-02-21T08:27:59;99921.19;;;4.97;79.73
63552;BME280;49698;48.072;7.800;2023-02-21T08:30:27;99906.06;;;5.26;79.36
63552;BME280;49698;48.072;7.800;2023-02-21T08:32:55;99907.38;;;5.64;79.42
63552;BME280;49698;48.072;7.800;2023-02-21T08:35:23;99904.44;;;6.23;78.81
63552;BME280;49698;48.072;7.800;2023-02-21T08:37:50;99911.00;;;7.04;77.01
63552;BME280;49698;48.072;7.800;2023-02-21T08:40:23;99911.69;;;8.09;74.02
63552;BME280;49698;48.072;7.800;2023-02-21T08:42:53;99910.38;;;9.29;70.47
63552;BME280;49698;48.072;7.800;2023-02-21T08:45:22;99899.91;;;10.51;65.90
63552;BME280;49698;48.072;7.800;2023-02-21T08:47:51;99898.88;;;11.97;62.59
63552;BME280;49698;48.072;7.800;2023-02-21T08:50:20;99898.53;;;13.68;58.44
63552;BME280;49698;48.072;7.800;2023-02-21T08:52:49;99902.25;;;15.22;54.11
63552;BME280;49698;48.072;7.800;2023-02-21T08:55:18;99893.63;;;16.65;50.04
63552;BME280;49698;48.072;7.800;2023-02-21T08:57:49;99896.56;;;17.66;47.39
63552;BME280;49698;48.072;7.800;2023-02-21T09:00:18;99885.53;;;17.88;46.33
63552;BME280;49698;48.072;7.800;2023-02-21T09:02:48;99880.78;;;17.85;46.43
63552;BME280;49698;48.072;7.800;2023-02-21T09:05:18;99880.84;;;17.54;46.50
63552;BME280;49698;48.072;7.800;2023-02-21T09:07:47;99876.97;;;17.29;47.06
63552;BME280;49698;48.072;7.800;2023-02-21T09:10:16;99885.31;;;17.50;47.14
63552;BME280;49698;48.072;7.800;2023-02-21T09:12:44;99880.41;;;18.30;45.62
63552;BME280;49698;48.072;7.800;2023-02-21T09:15:14;99874.34;;;19.27;43.34
63552;BME280;49698;48.072;7.800;2023-02-21T09:17:42;99872.22;;;20.04;41.38
63552;BME280;49698;48.072;7.800;2023-02-21T09:20:15;99868.56;;;20.66;39.66
63552;BME280;49698;48.072;7.800;2023-02-21T09:22:45;99859.72;;;20.82;38.88
63552;BME280;49698;48.072;7.800;2023-02-21T09:25:14;99855.13;;;20.49;39.01
63552;BME280;49698;48.072;7.800;2023-02-21T09:27:42;99857.78;;;20.03;39.62
63552;BME280;49698;48.072;7.800;2023-02-21T09:30:14;99848.44;;;19.42;40.30
63552;BME280;49698;48.072;7.800;2023-02-21T09:32:42;99856.28;;;18.84;41.41
63552;BME280;49698;48.072;7.800;2023-02-21T09:35:12;99846.34;;;18.15;42.14
63552;BME280;49698;48.072;7.800;2023-02-21T09:37:41;99853.00;;;17.40;43.44
63552;BME280;49698;48.072;7.800;2023-02-21T09:40:15;99841.09;;;17.01;43.91
63552;BME280;49698;48.072;7.800;2023-02-21T09:42:45;99843.50;;;16.71;44.17
63552;BME280;49698;48.072;7.800;2023-02-21T09:45:17;99835.31;;;16.31;44.61
63552;BME280;49698;48.072;7.800;2023-02-21T09:48:05;99833.41;;;16.09;44.91
63552;BME280;49698;48.072;7.800;2023-02-21T09:50:40;99828.47;;;15.89;45.17
63552;BME280;49698;48.072;7.800;2023-02-21T09:53:10;99830.38;;;15.66;45.69
63552;BME280;49698;48.072;7.800;2023-02-21T09:55:40;99831.28;;;15.48;46.16
63552;BME280;49698;48.072;7.800;2023-02-21T09:58:11;99822.81;;;15.27;46.32
63552;BME280;49698;48.072;7.800;2023-02-21T10:00:40;99826.34;;;15.00;47.21
63552;BME280;49698;48.072;7.800;2023-02-21T10:03:26;99818.81;;;14.69;47.71
63552;BME280;49698;48.072;7.800;2023-02-21T10:06:03;99827.75;;;14.37;48.48
63552;BME280;49698;48.072;7.800;2023-02-21T10:08:40;99820.06;;;14.11;49.16
63552;BME280;49698;48.072;7.800;2023-02-21T10:11:24;99815.00;;;13.91;49.41
63552;BME280;49698;48.072;7.800;2023-02-21T10:14:05;99816.91;;;13.90;49.77
63552;BME280;49698;48.072;7.800;2023-02-21T10:16:41;99813.00;;;13.97;49.50
63552;BME280;49698;48.072;7.800;2023-02-21T10:19:15;99810.88;;;13.93;49.77
63552;BME280;49698;48.072;7.800;2023-02-21T10:21:49;99814.88;;;13.82;49.97
63552;BME280;49698;48.072;7.800;2023-02-21T10:24:20;99811.13;;;13.78;50.44
63552;BME280;49698;48.072;7.800;2023-02-21T10:26:52;99804.13;;;13.77;50.40
63552;BME280;49698;48.072;7.800;2023-02-21T10:29:33;99806.81;;;13.77;50.58
63552;BME280;49698;48.072;7.800;2023-02-21T10:32:05;99801.72;;;13.76;50.64
63552;BME280;49698;48.072;7.800;2023-02-21T10:34:34;99805.72;;;13.78;50.74
63552;BME280;49698;48.072;7.800;2023-02-21T10:37:14;99803.84;;;13.79;50.84
63552;BME280;49698;48.072;7.800;2023-02-21T10:39:48;99806.78;;;13.82;50.71
63552;BME280;49698;48.072;7.800;2023-02-21T10:42:22;99800.84;;;13.80;50.93
63552;BME280;49698;48.072;7.800;2023-02-21T10:44:54;99794.06;;;13.83;50.89
63552;BME280;49698;48.072;7.800;2023-02-21T10:47:28;99792.59;;;13.90;50.98
63552;BME280;49698;48.072;7.800;2023-02-21T10:50:02;99791.69;;;13.95;51.09
63552;BME280;49698;48.072;7.800;2023-02-21T10:52:35;99786.41;;;14.04;51.00
63552;BME280;49698;48.072;7.800;2023-02-21T10:55:06;99784.41;;;14.09;51.02
63552;BME280;49698;48.072;7.800;2023-02-21T10:57:49;99779.44;;;14.16;50.83
63552;BME280;49698;48.072;7.800;2023-02-21T11:00:23;99777.16;;;14.24;50.56
63552;BME280;49698;48.072;7.800;2023-02-21T11:02:54;99772.56;;;14.38;50.31
63552;BME280;49698;48.072;7.800;2023-02-21T11:05:23;99769.69;;;14.48;50.19
63552;BME280;49698;48.072;7.800;2023-02-21T11:07:57;99764.28;;;14.62;49.73
63552;BME280;49698;48.072;7.800;2023-02-21T11:10:29;99764.28;;;14.62;49.39
63552;BME280;49698;48.072;7.800;2023-02-21T11:13:02;99752.47;;;14.72;49.11
63552;BME280;49698;48.072;7.800;2023-02-21T11:15:31;99746.75;;;14.73;48.99
63552;BME280;49698;48.072;7.800;2023-02-21T11:18:06;99741.88;;;14.75;48.91
63552;BME280;49698;48.072;7.800;2023-02-21T11:20:38;99734.44;;;14.81;48.54
63552;BME280;49698;48.072;7.800;2023-02-21T11:23:21;99731.41;;;14.82;48.33
63552;BME280;49698;48.072;7.800;2023-02-21T11:25:55;99725.78;;;14.92;47.91
63552;BME280;49698;48.072;7.800;2023-02-21T11:28:25;99715.84;;;15.02;47.63
63552;BME280;49698;48.072;7.800;2023-02-21T11:31:07;99718.31;;;15.12;47.22
63552;BME280;49698;48.072;7.800;2023-02-21T11:33:39;99710.09;;;15.17;46.69
63552;BME280;49698;48.072;7.800;2023-02-21T11:36:11;99709.97;;;15.22;46.74
63552;BME280;49698;48.072;7.800;2023-02-21T11:38:41;99707.63;;;15.29;46.50
63552;BME280;49698;48.072;7.800;2023-02-21T11:41:20;99699.16;;;15.45;46.34
63552;BME280;49698;48.072;7.800;2023-02-21T11:43:49;99698.78;;;15.60;45.82
63552;BME280;49698;48.072;7.800;2023-02-21T11:46:30;99685.38;;;15.77;45.29
63552;BME280;49698;48.072;7.800;2023-02-21T11:49:04;99690.69;;;15.91;45.18
63552;BME280;49698;48.072;7.800;2023-02-21T11:51:38;99683.25;;;15.97;44.92
63552;BME280;49698;48.072;7.800;2023-02-21T11:54:08;99683.59;;;16.04;44.82
63552;BME280;49698;48.072;7.800;2023-02-21T11:56:45;99674.34;;;16.05;44.68
63552;BME280;49698;48.072;7.800;2023-02-21T11:59:24;99668.31;;;16.08;44.51
63552;BME280;49698;48.072;7.800;2023-02-21T12:02:17;99656.38;;;16.18;44.31
63552;BME280;49698;48.072;7.800;2023-02-21T12:04:59;99648.75;;;16.20;44.34
63552;BME280;49698;48.072;7.800;2023-02-21T12:07:38;99642.69;;;16.23;44.28
63552;BME280;49698;48.072;7.800;2023-02-21T12:10:27;99635.81;;;16.25;44.14
63552;BME280;49698;48.072;7.800;2023-02-21T12:13:02;99630.41;;;16.25;44.04
63552;BME280;49698;48.072;7.800;2023-02-21T12:15:43;99625.94;;;16.29;44.01
63552;BME280;49698;48.072;7.800;2023-02-21T12:18:32;99624.06;;;16.38;43.70
63552;BME280;49698;48.072;7.800;2023-02-21T12:21:29;99609.09;;;16.50;43.75
63552;BME280;49698;48.072;7.800;2023-02-21T12:24:07;99611.19;;;16.61;43.50
63552;BME280;49698;48.072;7.800;2023-02-21T12:26:48;99604.97;;;16.70;43.14
63552;BME280;49698;48.072;7.800;2023-02-21T12:29:40;99599.06;;;16.76;43.00
63552;BME280;49698;48.072;7.800;2023-02-21T12:32:23;99589.97;;;16.90;42.51
63552;BME280;49698;48.072;7.800;2023-02-21T12:35:06;99585.03;;;17.00;42.17
63552;BME280;49698;48.072;7.800;2023-02-21T12:37:46;99574.16;;;17.00;41.96
63552;BME280;49698;48.072;7.800;2023-02-21T12:40:26;99571.59;;;16.95;41.85
63552;BME280;49698;48.072;7.800;2023-02-21T12:43:10;99575.94;;;16.96;41.76
63552;BME280;49698;48.072;7.800;2023-02-21T12:45:53;99567.13;;;16.91;41.73
63552;BME280;49698;48.072;7.800;2023-02-21T12:48:26;99565.06;;;16.87;41.67
63552;BME280;49698;48.072;7.800;2023-02-21T12:51:00;99558.03;;;16.86;41.61
63552;BME280;49698;48.072;7.800;2023-02-21T12:53:36;99556.75;;;16.93;41.48
63552;BME280;49698;48.072;7.800;2023-02-21T12:56:08;99553.88;;;16.98;41.22
63552;BME280;49698;48.072;7.800;2023-02-21T12:58:42;99546.84;;;16.97;41.18
63552;BME280;49698;48.072;7.800;2023-02-21T13:01:14;99539.00;;;16.95;41.33
63552;BME280;49698;48.072;7.800;2023-02-21T13:03:55;99536.28;;;16.95;41.48
63552;BME280;49698;48.072;7.800;2023-02-21T13:06:32;99532.16;;;16.98;41.46
63552;BME280;49698;48.072;7.800;2023-02-21T13:09:14;99527.50;;;16.98;41.48
63552;BME280;49698;48.072;7.800;2023-02-21T13:11:50;99528.94;;;16.96;41.43
63552;BME280;49698;48.072;7.800;2023-02-21T13:14:24;99522.72;;;16.95;41.72
63552;BME280;49698;48.072;7.800;2023-02-21T13:16:54;99514.28;;;16.97;41.53
63552;BME280;49698;48.072;7.800;2023-02-21T13:19:23;99518.41;;;17.03;41.07
63552;BME280;49698;48.072;7.800;2023-02-21T13:22:01;99502.09;;;17.03;40.58
63552;BME280;49698;48.072;7.800;2023-02-21T13:24:53;99494.13;;;16.98;40.35
63552;BME280;49698;48.072;7.800;2023-02-21T13:27:47;99495.56;;;17.04;40.32
63552;BME280;49698;48.072;7.800;2023-02-21T13:30:22;99487.53;;;17.07;40.56
63552;BME280;49698;48.072;7.800;2023-02-21T13:32:54;99490.41;;;17.11;40.52
63552;BME280;49698;48.072;7.800;2023-02-21T13:35:30;99478.28;;;17.17;40.23
63552;BME280;49698;48.072;7.800;2023-02-21T13:38:00;99472.50;;;17.19;39.69
63552;BME280;49698;48.072;7.800;2023-02-21T13:40:35;99468.38;;;17.13;39.23
63552;BME280;49698;48.072;7.800;2023-02-21T13:43:08;99465.97;;;17.11;39.35
63552;BME280;49698;48.072;7.800;2023-02-21T13:45:37;99458.97;;;17.10;39.24
63552;BME280;49698;48.072;7.800;2023-02-21T13:48:23;99459.91;;;17.14;39.06
63552;BME280;49698;48.072;7.800;2023-02-21T13:50:53;99451.59;;;17.19;38.78
63552;BME280;49698;48.072;7.800;2023-02-21T13:53:22;99450.41;;;17.29;38.47
63552;BME280;49698;48.072;7.800;2023-02-21T13:56:41;99443.69;;;17.35;37.97